Time,TemperatureF,DewpointF,PressureIn,WindDirection,WindDirectionDegrees,WindSpeedMPH,WindSpeedGustMPH,Humidity,HourlyPrecipIn,Conditions,Clouds,dailyrainin,SoftwareType,DateUTC
2013-11-17 00:01:00,45.5,43.3,30.08,North,0,0.0,1.1,92,0.00,,,0.00,WUHU21623XXSP,2013-11-17 05:01:00,
2013-11-17 00:14:00,45.5,43.3,30.08,North,0,0.0,0.0,92,0.00,,,0.00,WUHU21623XXSP,2013-11-17 05:14:00,
2013-11-17 00:19:00,45.7,43.5,30.08,South,180,0.0,0.0,92,0.00,,,0.00,WUHU21623XXSP,2013-11-17 05:19:00,
2013-11-17 00:24:00,45.7,43.5,30.09,NNE,22,2.9,5.1,92,0.00,,,0.00,WUHU21623XXSP,2013-11-17 05:24:00,
2013-11-17 00:32:00,46.0,43.8,30.09,NW,315,0.0,2.9,92,0.00,,,0.00,WUHU21623XXSP,2013-11-17 05:32:00,
2013-11-17 00:37:00,46.0,43.8,30.09,North,0,0.0,0.0,92,0.00,,,0.00,WUHU21623XXSP,2013-11-17 05:37:00,
2013-11-17 00:42:00,46.0,43.8,30.09,NE,45,0.0,0.0,92,0.00,,,0.00,WUHU21623XXSP,2013-11-17 05:42:00,
2013-11-17 00:47:00,46.0,43.8,30.09,West,270,0.0,3.6,92,0.00,,,0.00,WUHU21623XXSP,2013-11-17 05:47:00,
2013-11-17 00:52:00,46.2,44.0,30.07,SSE,157,1.1,4.7,92,0.00,,,0.00,WUHU21623XXSP,2013-11-17 05:52:00,
2013-11-17 00:57:00,46.2,44.0,30.07,SSE,157,5.6,5.6,92,0.00,,,0.00,WUHU21623XXSP,2013-11-17 05:57:00,
2013-11-17 01:02:00,46.4,44.2,30.07,South,180,0.0,5.6,92,0.00,,,0.00,WUHU21623XXSP,2013-11-17 06:02:00,
2013-11-17 01:07:00,46.6,44.4,30.07,NNE,22,8.5,8.5,92,0.00,,,0.00,WUHU21623XXSP,2013-11-17 06:07:00,
2013-11-17 01:12:00,46.6,44.6,30.07,South,180,0.0,8.5,93,0.00,,,0.00,WUHU21623XXSP,2013-11-17 06:12:00,
2013-11-17 01:17:00,46.8,44.6,30.07,NNW,337,6.5,6.5,92,0.00,,,0.00,WUHU21623XXSP,2013-11-17 06:17:00,
2013-11-17 01:22:00,46.9,44.7,30.07,SSE,157,0.0,6.5,92,0.00,,,0.00,WUHU21623XXSP,2013-11-17 06:22:00,
2013-11-17 01:27:00,46.9,44.7,30.06,SE,146,4.9,7.4,92,0.00,,,0.00,WUHU21623XXSP,2013-11-17 06:27:00,
2013-11-17 01:32:00,46.9,44.7,30.06,SE,141,5.8,9.2,92,0.00,,,0.00,WUHU21623XXSP,2013-11-17 06:32:00,
2013-11-17 01:37:00,46.9,44.7,30.07,NNE,22,3.4,9.2,92,0.00,,,0.00,WUHU21623XXSP,2013-11-17 06:37:00,
2013-11-17 01:42:00,46.9,44.7,30.07,NNE,22,0.0,6.5,92,0.00,,,0.00,WUHU21623XXSP,2013-11-17 06:42:00,
2013-11-17 01:47:00,46.9,44.7,30.07,East,90,0.0,6.5,92,0.00,,,0.00,WUHU21623XXSP,2013-11-17 06:47:00,
2013-11-17 01:52:00,46.8,44.6,30.07,SSE,157,0.0,6.9,92,0.00,,,0.00,WUHU21623XXSP,2013-11-17 06:52:00,
2013-11-17 01:57:00,46.6,44.4,30.07,SSW,202,0.0,6.9,92,0.00,,,0.00,WUHU21623XXSP,2013-11-17 06:57:00,
2013-11-17 02:02:00,46.2,44.0,30.06,WNW,292,2.9,2.9,92,0.00,,,0.00,WUHU21623XXSP,2013-11-17 07:02:00,
2013-11-17 02:07:00,46.0,43.8,30.07,SW,225,0.0,2.9,92,0.00,,,0.00,WUHU21623XXSP,2013-11-17 07:07:00,
2013-11-17 02:14:00,45.7,43.5,30.07,South,180,0.0,0.0,92,0.00,,,0.00,WUHU21623XXSP,2013-11-17 07:14:00,
2013-11-17 02:19:00,45.5,43.3,30.06,South,180,0.0,2.0,92,0.00,,,0.00,WUHU21623XXSP,2013-11-17 07:19:00,
2013-11-17 02:24:00,45.3,43.3,30.06,SSE,157,0.0,4.3,93,0.00,,,0.00,WUHU21623XXSP,2013-11-17 07:24:00,
2013-11-17 02:29:00,45.3,43.3,30.06,SW,225,0.0,4.3,93,0.00,,,0.00,WUHU21623XXSP,2013-11-17 07:29:00,
2013-11-17 02:34:00,45.5,43.5,30.06,SSE,157,0.2,2.5,93,0.00,,,0.00,WUHU21623XXSP,2013-11-17 07:34:00,
2013-11-17 02:39:00,45.7,43.7,30.05,SSW,196,1.5,2.5,93,0.00,,,0.00,WUHU21623XXSP,2013-11-17 07:39:00,
2013-11-17 02:44:00,46.0,44.0,30.06,SSE,157,0.0,2.5,93,0.00,,,0.00,WUHU21623XXSP,2013-11-17 07:44:00,
2013-11-17 02:49:00,46.0,44.0,30.05,South,180,2.5,4.3,93,0.00,,,0.00,WUHU21623XXSP,2013-11-17 07:49:00,
2013-11-17 02:54:00,46.2,44.2,30.04,SW,225,0.0,5.4,93,0.00,,,0.00,WUHU21623XXSP,2013-11-17 07:54:00,
2013-11-17 02:59:00,46.2,44.2,30.04,SSE,157,0.0,5.4,93,0.00,,,0.00,WUHU21623XXSP,2013-11-17 07:59:00,
2013-11-17 03:04:00,46.2,44.2,30.03,SE,135,4.7,4.7,93,0.00,,,0.00,WUHU21623XXSP,2013-11-17 08:04:00,
2013-11-17 03:09:00,46.2,44.2,30.03,South,180,3.6,4.7,93,0.00,,,0.00,WUHU21623XXSP,2013-11-17 08:09:00,
2013-11-17 03:14:00,46.2,44.2,30.04,SW,225,0.0,4.7,93,0.00,,,0.00,WUHU21623XXSP,2013-11-17 08:14:00,
2013-11-17 03:19:00,46.4,44.4,30.03,SSE,157,0.0,4.7,93,0.00,,,0.00,WUHU21623XXSP,2013-11-17 08:19:00,
2013-11-17 03:24:00,46.6,44.6,30.03,East,100,2.1,4.9,93,0.00,,,0.00,WUHU21623XXSP,2013-11-17 08:24:00,
2013-11-17 03:29:00,46.4,44.4,30.02,SSE,168,5.1,6.9,93,0.00,,,0.00,WUHU21623XXSP,2013-11-17 08:29:00,
2013-11-17 03:34:00,46.6,44.6,30.02,South,180,0.7,6.9,93,0.00,,,0.00,WUHU21623XXSP,2013-11-17 08:34:00,
2013-11-17 03:39:00,46.6,44.6,30.02,SSE,157,7.2,7.2,93,0.00,,,0.00,WUHU21623XXSP,2013-11-17 08:39:00,
2013-11-17 03:44:00,46.6,44.6,30.02,South,180,1.3,7.2,93,0.00,,,0.00,WUHU21623XXSP,2013-11-17 08:44:00,
2013-11-17 03:49:00,46.6,44.6,30.03,SSE,157,0.0,1.3,93,0.00,,,0.00,WUHU21623XXSP,2013-11-17 08:49:00,
2013-11-17 03:54:00,46.6,44.6,30.03,NNE,22,0.0,0.0,93,0.00,,,0.00,WUHU21623XXSP,2013-11-17 08:54:00,
2013-11-17 03:59:00,46.6,44.6,30.03,SE,135,0.0,0.0,93,0.00,,,0.00,WUHU21623XXSP,2013-11-17 08:59:00,
2013-11-17 04:04:00,46.8,44.8,30.02,South,180,3.8,3.8,93,0.00,,,0.00,WUHU21623XXSP,2013-11-17 09:04:00,
2013-11-17 04:09:00,46.8,44.8,30.02,SSE,157,2.0,3.8,93,0.00,,,0.00,WUHU21623XXSP,2013-11-17 09:09:00,
2013-11-17 04:14:00,46.9,44.9,30.02,SE,135,0.0,2.0,93,0.00,,,0.00,WUHU21623XXSP,2013-11-17 09:14:00,
2013-11-17 04:19:00,46.9,44.9,30.02,SSE,157,0.0,0.0,93,0.00,,,0.00,WUHU21623XXSP,2013-11-17 09:19:00,
2013-11-17 04:29:00,47.1,45.1,30.02,NE,45,0.0,3.6,93,0.00,,,0.00,WUHU21623XXSP,2013-11-17 09:29:00,
2013-11-17 04:43:00,47.1,45.1,30.02,SSE,157,0.0,5.1,93,0.00,,,0.00,WUHU21623XXSP,2013-11-17 09:43:00,
2013-11-17 04:48:00,47.3,45.3,30.02,SSW,202,0.0,5.1,93,0.00,,,0.00,WUHU21623XXSP,2013-11-17 09:48:00,
2013-11-17 04:53:00,47.3,45.3,30.02,SSE,157,2.9,2.9,93,0.00,,,0.00,WUHU21623XXSP,2013-11-17 09:53:00,
2013-11-17 04:58:00,47.3,45.3,30.02,SSE,157,0.0,5.1,93,0.00,,,0.00,WUHU21623XXSP,2013-11-17 09:58:00,
2013-11-17 05:03:00,47.1,45.1,30.02,West,270,0.0,5.1,93,0.00,,,0.00,WUHU21623XXSP,2013-11-17 10:03:00,
2013-11-17 05:12:00,47.1,45.1,30.02,SSW,202,0.0,0.0,93,0.00,,,0.00,WUHU21623XXSP,2013-11-17 10:12:00,
2013-11-17 05:21:00,47.1,45.1,30.00,NNW,337,0.0,2.9,93,0.00,,,0.00,WUHU21623XXSP,2013-11-17 10:21:00,
2013-11-17 05:27:00,47.1,45.3,30.00,South,180,0.0,0.0,94,0.00,,,0.00,WUHU21623XXSP,2013-11-17 10:27:00,
2013-11-17 05:32:00,47.1,45.3,30.00,SSW,202,0.0,6.3,94,0.00,,,0.00,WUHU21623XXSP,2013-11-17 10:32:00,
2013-11-17 05:37:00,47.1,45.3,30.00,SSE,157,0.0,6.3,94,0.00,,,0.00,WUHU21623XXSP,2013-11-17 10:37:00,
2013-11-17 05:42:00,47.3,45.5,30.01,SSE,157,0.0,5.6,94,0.00,,,0.00,WUHU21623XXSP,2013-11-17 10:42:00,
2013-11-17 05:47:00,47.3,45.5,30.01,SSE,157,0.0,5.6,94,0.00,,,0.00,WUHU21623XXSP,2013-11-17 10:47:00,
2013-11-17 05:52:00,47.3,45.5,30.01,SSE,157,0.0,5.6,94,0.00,,,0.00,WUHU21623XXSP,2013-11-17 10:52:00,
2013-11-17 05:57:00,47.3,45.5,30.01,SSE,157,5.8,5.8,94,0.00,,,0.00,WUHU21623XXSP,2013-11-17 10:57:00,
2013-11-17 06:02:00,47.3,45.5,30.01,SSE,155,2.5,5.8,94,0.00,,,0.00,WUHU21623XXSP,2013-11-17 11:02:00,
2013-11-17 06:07:00,47.5,45.7,30.02,SSE,157,0.7,2.7,94,0.00,,,0.00,WUHU21623XXSP,2013-11-17 11:07:00,
2013-11-17 06:12:00,47.5,45.7,30.01,SE,135,4.3,5.1,94,0.00,,,0.00,WUHU21623XXSP,2013-11-17 11:12:00,
2013-11-17 06:17:00,47.5,45.7,30.02,SE,135,0.0,5.1,94,0.00,,,0.00,WUHU21623XXSP,2013-11-17 11:17:00,
2013-11-17 06:22:00,47.5,45.7,30.02,SSE,157,0.0,0.0,94,0.00,,,0.00,WUHU21623XXSP,2013-11-17 11:22:00,
2013-11-17 06:27:00,47.7,45.9,30.02,SSE,157,0.0,3.1,94,0.00,,,0.00,WUHU21623XXSP,2013-11-17 11:27:00,
2013-11-17 06:32:00,47.8,46.0,30.01,SSW,202,0.0,3.1,94,0.00,,,0.00,WUHU21623XXSP,2013-11-17 11:32:00,
2013-11-17 06:37:00,47.8,46.0,30.01,SSW,202,0.0,0.0,94,0.00,,,0.00,WUHU21623XXSP,2013-11-17 11:37:00,
2013-11-17 06:43:00,48.0,46.2,30.02,South,180,2.1,2.9,94,0.00,,,0.00,WUHU21623XXSP,2013-11-17 11:43:00,
2013-11-17 06:48:00,48.0,46.2,30.02,SSE,157,6.0,6.0,94,0.00,,,0.00,WUHU21623XXSP,2013-11-17 11:48:00,
2013-11-17 06:53:00,48.0,46.2,30.02,SSE,166,1.6,6.0,94,0.00,,,0.00,WUHU21623XXSP,2013-11-17 11:53:00,
2013-11-17 06:58:00,48.0,46.2,30.02,NNW,337,0.0,2.7,94,0.00,,,0.00,WUHU21623XXSP,2013-11-17 11:58:00,
2013-11-17 07:03:00,48.0,46.2,30.02,SSW,202,0.0,1.8,94,0.00,,,0.00,WUHU21623XXSP,2013-11-17 12:03:00,
2013-11-17 07:08:00,48.0,46.2,30.02,SE,135,0.0,1.8,94,0.00,,,0.00,WUHU21623XXSP,2013-11-17 12:08:00,
2013-11-17 07:13:00,48.0,46.2,30.02,SE,135,0.0,2.5,94,0.00,,,0.00,WUHU21623XXSP,2013-11-17 12:13:00,
2013-11-17 07:18:00,48.2,46.4,30.02,SSW,202,6.0,6.0,94,0.00,,,0.00,WUHU21623XXSP,2013-11-17 12:18:00,
2013-11-17 07:23:00,48.2,46.4,30.01,SSE,157,3.1,6.0,94,0.00,,,0.00,WUHU21623XXSP,2013-11-17 12:23:00,
2013-11-17 07:28:00,48.2,46.4,30.01,SSE,157,0.0,3.8,94,0.00,,,0.00,WUHU21623XXSP,2013-11-17 12:28:00,
2013-11-17 07:34:00,48.2,46.4,30.01,South,180,0.0,4.9,94,0.00,,,0.00,WUHU21623XXSP,2013-11-17 12:34:00,
2013-11-17 07:39:00,48.2,46.4,30.02,South,180,0.0,4.9,94,0.00,,,0.00,WUHU21623XXSP,2013-11-17 12:39:00,
2013-11-17 07:44:00,48.4,46.6,30.01,SSE,157,0.0,4.0,94,0.00,,,0.00,WUHU21623XXSP,2013-11-17 12:44:00,
2013-11-17 07:49:00,48.4,46.6,30.01,WSW,247,0.0,0.0,94,0.00,,,0.00,WUHU21623XXSP,2013-11-17 12:49:00,
2013-11-17 07:54:00,48.4,46.6,30.01,South,180,0.0,0.4,94,0.00,,,0.00,WUHU21623XXSP,2013-11-17 12:54:00,
2013-11-17 07:59:00,48.4,46.6,30.01,SSE,157,0.0,0.4,94,0.00,,,0.00,WUHU21623XXSP,2013-11-17 12:59:00,
2013-11-17 08:04:00,48.4,46.6,30.01,SSE,157,0.0,0.0,94,0.00,,,0.00,WUHU21623XXSP,2013-11-17 13:04:00,
2013-11-17 08:09:00,48.4,46.6,30.01,ESE,112,0.0,0.0,94,0.00,,,0.00,WUHU21623XXSP,2013-11-17 13:09:00,
2013-11-17 08:14:00,48.6,46.8,30.01,SSE,157,0.0,0.4,94,0.00,,,0.00,WUHU21623XXSP,2013-11-17 13:14:00,
2013-11-17 08:19:00,48.7,46.9,30.01,South,180,4.0,4.0,94,0.00,,,0.00,WUHU21623XXSP,2013-11-17 13:19:00,
2013-11-17 08:24:00,48.7,46.9,30.01,SSE,157,0.0,4.0,94,0.00,,,0.00,WUHU21623XXSP,2013-11-17 13:24:00,
2013-11-17 08:29:00,48.7,46.9,30.00,SSE,157,2.0,3.4,94,0.00,,,0.00,WUHU21623XXSP,2013-11-17 13:29:00,
2013-11-17 08:34:00,48.9,47.1,30.01,SW,225,0.0,3.4,94,0.00,,,0.00,WUHU21623XXSP,2013-11-17 13:34:00,
2013-11-17 08:39:00,48.9,47.1,30.01,South,180,4.9,4.9,94,0.00,,,0.00,WUHU21623XXSP,2013-11-17 13:39:00,
2013-11-17 08:44:00,49.1,47.3,30.00,SSW,202,0.0,4.9,94,0.00,,,0.00,WUHU21623XXSP,2013-11-17 13:44:00,
2013-11-17 08:49:00,49.3,47.7,30.00,SSE,157,0.0,0.0,94,0.00,,,0.00,WUHU21623XXSP,2013-11-17 13:49:00,
2013-11-17 08:54:00,49.6,47.8,30.00,SSE,157,0.0,0.0,94,0.00,,,0.00,WUHU21623XXSP,2013-11-17 13:54:00,
2013-11-17 08:59:00,49.6,47.8,30.00,SSE,157,0.0,0.0,94,0.00,,,0.00,WUHU21623XXSP,2013-11-17 13:59:00,
2013-11-17 09:04:00,49.8,48.0,30.00,SSE,157,0.0,0.0,94,0.00,,,0.00,WUHU21623XXSP,2013-11-17 14:04:00,
2013-11-17 09:09:00,50.0,48.2,30.00,South,180,0.0,0.0,94,0.00,,,0.00,WUHU21623XXSP,2013-11-17 14:09:00,
2013-11-17 09:14:00,50.2,48.4,30.00,SSW,202,0.0,5.1,94,0.00,,,0.00,WUHU21623XXSP,2013-11-17 14:14:00,
2013-11-17 09:20:00,50.5,48.7,30.00,SSW,202,0.0,5.1,94,0.00,,,0.00,WUHU21623XXSP,2013-11-17 14:20:00,
2013-11-17 09:25:00,50.5,48.7,30.00,SSE,157,3.8,3.8,94,0.00,,,0.00,WUHU21623XXSP,2013-11-17 14:25:00,
2013-11-17 09:30:00,50.5,48.7,30.00,SSW,202,0.0,3.8,94,0.00,,,0.00,WUHU21623XXSP,2013-11-17 14:30:00,
2013-11-17 09:35:00,50.7,48.9,30.00,South,180,0.0,1.8,94,0.00,,,0.00,WUHU21623XXSP,2013-11-17 14:35:00,
2013-11-17 09:40:00,50.7,48.9,30.00,South,180,0.0,1.8,94,0.00,,,0.00,WUHU21623XXSP,2013-11-17 14:40:00,
2013-11-17 09:45:00,50.7,48.9,30.00,South,180,0.0,0.0,94,0.00,,,0.00,WUHU21623XXSP,2013-11-17 14:45:00,
2013-11-17 09:50:00,50.7,48.9,30.00,South,180,0.0,0.0,94,0.00,,,0.00,WUHU21623XXSP,2013-11-17 14:50:00,
2013-11-17 09:55:00,50.9,49.1,29.99,South,180,0.0,0.0,94,0.00,,,0.00,WUHU21623XXSP,2013-11-17 14:55:00,
2013-11-17 10:00:00,51.1,49.3,29.99,SSE,157,0.0,0.0,94,0.00,,,0.00,WUHU21623XXSP,2013-11-17 15:00:00,
2013-11-17 10:05:00,51.3,49.5,29.99,NNE,22,0.7,0.7,94,0.00,,,0.00,WUHU21623XXSP,2013-11-17 15:05:00,
2013-11-17 10:10:00,51.4,49.6,29.99,NW,315,0.0,0.7,94,0.00,,,0.00,WUHU21623XXSP,2013-11-17 15:10:00,
2013-11-17 10:15:00,51.6,49.8,29.99,SSW,202,0.0,0.0,94,0.00,,,0.00,WUHU21623XXSP,2013-11-17 15:15:00,
2013-11-17 10:20:00,51.6,49.8,29.99,SSW,202,0.0,2.0,94,0.00,,,0.00,WUHU21623XXSP,2013-11-17 15:20:00,
2013-11-17 10:25:00,52.0,50.2,29.98,ENE,67,0.0,2.0,94,0.00,,,0.00,WUHU21623XXSP,2013-11-17 15:25:00,
2013-11-17 10:30:00,52.3,50.5,29.98,West,270,0.0,4.9,94,0.00,,,0.00,WUHU21623XXSP,2013-11-17 15:30:00,
2013-11-17 10:35:00,52.5,50.7,29.98,North,0,0.0,4.9,94,0.00,,,0.00,WUHU21623XXSP,2013-11-17 15:35:00,
2013-11-17 10:41:00,52.5,50.7,29.98,WSW,247,0.0,4.7,94,0.00,,,0.00,WUHU21623XXSP,2013-11-17 15:41:00,
2013-11-17 10:47:00,52.7,50.9,29.97,SSW,202,2.0,4.7,94,0.00,,,0.00,WUHU21623XXSP,2013-11-17 15:47:00,
2013-11-17 10:52:00,52.5,50.7,29.97,NE,45,0.0,8.1,94,0.00,,,0.00,WUHU21623XXSP,2013-11-17 15:52:00,
2013-11-17 10:57:00,52.7,50.9,29.97,WSW,247,0.0,8.1,94,0.00,,,0.00,WUHU21623XXSP,2013-11-17 15:57:00,
2013-11-17 11:02:00,52.7,50.9,29.97,NNE,22,5.1,5.1,94,0.00,,,0.00,WUHU21623XXSP,2013-11-17 16:02:00,
2013-11-17 11:07:00,52.9,50.8,29.97,SW,225,0.0,5.1,93,0.00,,,0.00,WUHU21623XXSP,2013-11-17 16:07:00,
2013-11-17 11:12:00,52.9,50.8,29.97,WSW,247,0.0,4.9,93,0.00,,,0.00,WUHU21623XXSP,2013-11-17 16:12:00,
2013-11-17 11:17:00,53.2,51.1,29.97,NE,45,0.0,0.0,93,0.00,,,0.00,WUHU21623XXSP,2013-11-17 16:17:00,
2013-11-17 11:22:00,53.2,51.1,29.97,SW,225,0.0,3.4,93,0.00,,,0.00,WUHU21623XXSP,2013-11-17 16:22:00,
2013-11-17 11:27:00,53.2,51.1,29.96,West,270,0.0,3.4,93,0.00,,,0.00,WUHU21623XXSP,2013-11-17 16:27:00,
2013-11-17 11:32:00,53.4,51.3,29.97,SSE,157,0.0,4.9,93,0.00,,,0.00,WUHU21623XXSP,2013-11-17 16:32:00,
2013-11-17 11:37:00,53.4,51.3,29.97,SSE,157,0.0,4.9,93,0.00,,,0.00,WUHU21623XXSP,2013-11-17 16:37:00,
2013-11-17 11:42:00,53.4,51.3,29.97,SSE,157,0.0,0.0,93,0.00,,,0.00,WUHU21623XXSP,2013-11-17 16:42:00,
2013-11-17 11:47:00,53.4,51.3,29.96,South,180,0.0,0.0,93,0.00,,,0.00,WUHU21623XXSP,2013-11-17 16:47:00,
2013-11-17 11:52:00,53.4,51.1,29.96,South,180,0.0,0.0,92,0.00,,,0.00,WUHU21623XXSP,2013-11-17 16:52:00,
2013-11-17 11:57:00,53.6,51.3,29.96,SSE,157,0.0,0.0,92,0.00,,,0.00,WUHU21623XXSP,2013-11-17 16:57:00,
2013-11-17 12:02:00,53.8,51.5,29.96,SSE,157,3.6,3.6,92,0.00,,,0.00,WUHU21623XXSP,2013-11-17 17:02:00,
2013-11-17 12:07:00,53.6,51.3,29.96,SSE,157,4.5,4.5,92,0.00,,,0.00,WUHU21623XXSP,2013-11-17 17:07:00,
2013-11-17 12:13:00,53.8,51.5,29.95,South,180,0.0,4.5,92,0.00,,,0.00,WUHU21623XXSP,2013-11-17 17:13:00,
2013-11-17 12:18:00,53.6,51.3,29.95,SE,135,0.0,0.0,92,0.00,,,0.00,WUHU21623XXSP,2013-11-17 17:18:00,
2013-11-17 12:23:00,53.4,51.1,29.95,NW,315,0.0,4.7,92,0.00,,,0.00,WUHU21623XXSP,2013-11-17 17:23:00,
2013-11-17 12:29:00,53.4,51.1,29.95,SW,225,0.0,0.0,92,0.00,,,0.00,WUHU21623XXSP,2013-11-17 17:29:00,
2013-11-17 12:34:00,53.4,51.1,29.95,SSW,202,0.0,0.0,92,0.00,,,0.00,WUHU21623XXSP,2013-11-17 17:34:00,
2013-11-17 12:39:00,53.4,51.1,29.94,SSE,157,3.4,3.4,92,0.00,,,0.00,WUHU21623XXSP,2013-11-17 17:39:00,
2013-11-17 12:44:00,53.4,51.3,29.94,South,180,0.0,3.4,93,0.00,,,0.00,WUHU21623XXSP,2013-11-17 17:44:00,
2013-11-17 12:49:00,53.2,51.1,29.94,SSW,202,0.0,0.0,93,0.00,,,0.00,WUHU21623XXSP,2013-11-17 17:49:00,
2013-11-17 12:54:00,53.4,51.3,29.94,SW,225,0.0,0.0,93,0.00,,,0.00,WUHU21623XXSP,2013-11-17 17:54:00,
2013-11-17 12:59:00,53.4,51.3,29.94,SW,225,0.0,0.0,93,0.00,,,0.00,WUHU21623XXSP,2013-11-17 17:59:00,
2013-11-17 13:04:00,53.4,51.3,29.94,SSE,157,4.0,4.0,93,0.00,,,0.00,WUHU21623XXSP,2013-11-17 18:04:00,
2013-11-17 13:09:00,53.4,51.3,29.94,South,180,0.0,4.0,93,0.00,,,0.00,WUHU21623XXSP,2013-11-17 18:09:00,
2013-11-17 13:14:00,53.4,51.3,29.94,South,180,0.0,0.0,93,0.00,,,0.00,WUHU21623XXSP,2013-11-17 18:14:00,
2013-11-17 13:19:00,53.4,51.3,29.94,South,180,0.0,0.0,93,0.00,,,0.00,WUHU21623XXSP,2013-11-17 18:19:00,
2013-11-17 13:24:00,53.4,51.3,29.93,South,180,0.0,0.0,93,0.00,,,0.00,WUHU21623XXSP,2013-11-17 18:24:00,
2013-11-17 13:29:00,53.4,51.3,29.93,South,180,0.0,0.0,93,0.00,,,0.00,WUHU21623XXSP,2013-11-17 18:29:00,
2013-11-17 13:34:00,53.4,51.3,29.93,SW,225,0.0,0.0,93,0.00,,,0.00,WUHU21623XXSP,2013-11-17 18:34:00,
2013-11-17 13:39:00,53.4,51.3,29.93,South,180,0.0,0.0,93,0.00,,,0.00,WUHU21623XXSP,2013-11-17 18:39:00,
2013-11-17 13:44:00,53.4,51.3,29.93,South,180,0.0,0.0,93,0.00,,,0.00,WUHU21623XXSP,2013-11-17 18:44:00,
2013-11-17 13:51:00,53.4,51.3,29.92,South,180,0.0,0.0,93,0.00,,,0.00,WUHU21623XXSP,2013-11-17 18:51:00,
2013-11-17 13:56:00,53.4,51.3,29.92,South,180,0.0,0.0,93,0.00,,,0.00,WUHU21623XXSP,2013-11-17 18:56:00,
2013-11-17 14:01:00,53.4,51.3,29.92,NNW,337,0.0,0.0,93,0.00,,,0.00,WUHU21623XXSP,2013-11-17 19:01:00,
2013-11-17 14:06:00,53.4,51.3,29.91,NNW,337,0.0,0.0,93,0.00,,,0.00,WUHU21623XXSP,2013-11-17 19:06:00,
2013-11-17 14:11:00,53.4,51.6,29.91,SSE,157,0.0,0.0,94,0.00,,,0.00,WUHU21623XXSP,2013-11-17 19:11:00,
2013-11-17 14:16:00,53.4,51.6,29.90,SSW,202,0.0,0.0,94,0.00,,,0.00,WUHU21623XXSP,2013-11-17 19:16:00,
2013-11-17 14:21:00,53.4,51.6,29.89,South,180,0.0,0.0,94,0.00,,,0.00,WUHU21623XXSP,2013-11-17 19:21:00,
2013-11-17 14:26:00,53.6,51.8,29.89,SSE,157,2.5,4.0,94,0.00,,,0.00,WUHU21623XXSP,2013-11-17 19:26:00,
2013-11-17 14:31:00,53.8,52.0,29.89,SSE,157,0.0,4.0,94,0.00,,,0.00,WUHU21623XXSP,2013-11-17 19:31:00,
2013-11-17 14:36:00,53.8,52.0,29.89,SSE,157,2.9,3.8,94,0.00,,,0.00,WUHU21623XXSP,2013-11-17 19:36:00,
2013-11-17 14:41:00,53.8,52.0,29.89,SSE,157,0.0,3.8,94,0.00,,,0.00,WUHU21623XXSP,2013-11-17 19:41:00,
2013-11-17 14:46:00,53.8,52.0,29.88,SSE,157,0.0,0.0,94,0.00,,,0.00,WUHU21623XXSP,2013-11-17 19:46:00,
2013-11-17 14:51:00,53.8,52.0,29.89,SSE,157,0.0,1.6,94,0.00,,,0.00,WUHU21623XXSP,2013-11-17 19:51:00,
2013-11-17 14:56:00,53.8,52.0,29.88,NNE,22,0.0,1.6,94,0.00,,,0.00,WUHU21623XXSP,2013-11-17 19:56:00,
2013-11-17 15:01:00,53.8,52.0,29.87,North,0,0.0,0.0,94,0.00,,,0.00,WUHU21623XXSP,2013-11-17 20:01:00,
2013-11-17 15:06:00,53.4,51.6,29.87,NNE,22,0.0,0.2,94,0.00,,,0.00,WUHU21623XXSP,2013-11-17 20:06:00,
2013-11-17 15:11:00,53.4,51.6,29.87,NNE,22,0.0,0.2,94,0.00,,,0.00,WUHU21623XXSP,2013-11-17 20:11:00,
2013-11-17 15:16:00,53.4,51.6,29.86,WSW,247,0.0,0.0,94,0.00,,,0.00,WUHU21623XXSP,2013-11-17 20:16:00,
2013-11-17 15:21:00,53.4,51.6,29.85,South,180,0.0,0.0,94,0.00,,,0.00,WUHU21623XXSP,2013-11-17 20:21:00,
2013-11-17 15:26:00,53.2,51.4,29.84,NNE,22,3.6,3.6,94,0.00,,,0.00,WUHU21623XXSP,2013-11-17 20:26:00,
2013-11-17 15:31:00,53.2,51.4,29.85,NNE,22,0.0,3.6,94,0.00,,,0.00,WUHU21623XXSP,2013-11-17 20:31:00,
2013-11-17 15:36:00,52.9,51.1,29.84,NE,52,2.8,5.4,94,0.00,,,0.00,WUHU21623XXSP,2013-11-17 20:36:00,
2013-11-17 15:41:00,52.9,51.1,29.85,SSE,157,0.7,5.4,94,0.00,,,0.00,WUHU21623XXSP,2013-11-17 20:41:00,
2013-11-17 15:46:00,52.5,50.7,29.85,West,270,0.0,2.2,94,0.00,,,0.00,WUHU21623XXSP,2013-11-17 20:46:00,
2013-11-17 15:54:00,52.5,50.9,29.84,SE,135,0.0,1.8,94,0.00,,,0.00,WUHU21623XXSP,2013-11-17 20:54:00,
2013-11-17 15:59:00,52.3,50.7,29.84,SSE,157,1.3,1.3,94,0.00,,,0.00,WUHU21623XXSP,2013-11-17 20:59:00,
2013-11-17 16:04:00,52.3,50.7,29.84,SSE,157,0.0,1.3,94,0.00,,,0.00,WUHU21623XXSP,2013-11-17 21:04:00,
2013-11-17 16:09:00,52.2,50.6,29.84,SSE,157,0.0,2.9,94,0.00,,,0.00,WUHU21623XXSP,2013-11-17 21:09:00,
2013-11-17 16:14:00,52.2,50.6,29.84,South,180,0.0,2.9,94,0.00,,,0.00,WUHU21623XXSP,2013-11-17 21:14:00,
2013-11-17 16:19:00,52.2,50.6,29.83,SSE,157,3.1,3.1,94,0.00,,,0.00,WUHU21623XXSP,2013-11-17 21:19:00,
2013-11-17 16:24:00,52.0,50.4,29.83,SSE,157,1.6,3.4,94,0.00,,,0.00,WUHU21623XXSP,2013-11-17 21:24:00,
2013-11-17 16:29:00,52.0,50.4,29.83,SSE,147,4.9,5.6,94,0.00,,,0.00,WUHU21623XXSP,2013-11-17 21:29:00,
2013-11-17 16:34:00,52.0,50.4,29.83,South,180,0.0,5.6,94,0.00,,,0.00,WUHU21623XXSP,2013-11-17 21:34:00,
2013-11-17 16:39:00,52.0,50.4,29.83,South,180,0.0,3.8,94,0.00,,,0.00,WUHU21623XXSP,2013-11-17 21:39:00,
2013-11-17 16:44:00,52.0,50.4,29.83,SSE,157,2.9,2.9,94,0.00,,,0.00,WUHU21623XXSP,2013-11-17 21:44:00,
2013-11-17 16:49:00,52.0,50.4,29.82,SSE,157,0.0,4.3,94,0.00,,,0.00,WUHU21623XXSP,2013-11-17 21:49:00,
2013-11-17 16:54:00,52.0,50.4,29.82,South,180,0.0,4.5,94,0.00,,,0.00,WUHU21623XXSP,2013-11-17 21:54:00,
2013-11-17 16:59:00,52.0,50.4,29.81,SSE,157,3.1,4.5,94,0.00,,,0.00,WUHU21623XXSP,2013-11-17 21:59:00,
2013-11-17 17:04:00,52.0,50.4,29.81,SSW,202,0.0,3.4,94,0.00,,,0.00,WUHU21623XXSP,2013-11-17 22:04:00,
2013-11-17 17:09:00,52.0,50.4,29.81,South,180,0.0,3.4,94,0.00,,,0.00,WUHU21623XXSP,2013-11-17 22:09:00,
2013-11-17 17:14:00,52.0,50.4,29.80,SSW,202,1.3,1.3,94,0.00,,,0.00,WUHU21623XXSP,2013-11-17 22:14:00,
2013-11-17 17:19:00,51.8,50.2,29.80,South,185,5.3,6.7,94,0.00,,,0.00,WUHU21623XXSP,2013-11-17 22:19:00,
2013-11-17 17:25:00,51.8,50.2,29.79,SE,135,0.2,6.7,94,0.00,,,0.00,WUHU21623XXSP,2013-11-17 22:25:00,
2013-11-17 17:30:00,51.8,50.2,29.79,SSW,202,0.0,5.6,94,0.00,,,0.00,WUHU21623XXSP,2013-11-17 22:30:00,
2013-11-17 17:35:00,51.6,50.0,29.79,NNE,22,0.0,0.0,94,0.00,,,0.00,WUHU21623XXSP,2013-11-17 22:35:00,
2013-11-17 17:40:00,51.6,50.0,29.80,South,180,9.1,9.6,94,0.00,,,0.00,WUHU21623XXSP,2013-11-17 22:40:00,
2013-11-17 17:45:00,51.6,50.0,29.80,South,175,4.7,9.6,94,0.00,,,0.00,WUHU21623XXSP,2013-11-17 22:45:00,
2013-11-17 17:51:00,51.6,50.0,29.80,South,180,0.0,7.2,94,0.00,,,0.00,WUHU21623XXSP,2013-11-17 22:51:00,
2013-11-17 17:55:00,51.6,50.0,29.80,South,180,1.3,5.6,94,0.00,,,0.00,WUHU21623XXSP,2013-11-17 22:55:00,
2013-11-17 18:01:00,51.6,50.0,29.80,SSE,164,3.2,4.7,94,0.00,,,0.00,WUHU21623XXSP,2013-11-17 23:01:00,
2013-11-17 18:06:00,51.6,50.0,29.79,SSE,157,0.0,4.3,94,0.00,,,0.00,WUHU21623XXSP,2013-11-17 23:06:00,
2013-11-17 18:11:00,51.6,50.0,29.79,SSE,157,5.4,5.4,94,0.00,,,0.00,WUHU21623XXSP,2013-11-17 23:11:00,
2013-11-17 18:16:00,51.6,50.0,29.78,SE,135,0.0,7.2,94,0.00,,,0.00,WUHU21623XXSP,2013-11-17 23:16:00,
2013-11-17 18:22:00,51.6,50.0,29.78,NNW,337,0.0,7.2,94,0.00,,,0.00,WUHU21623XXSP,2013-11-17 23:22:00,
2013-11-17 18:27:00,51.6,50.0,29.78,SSE,157,2.5,3.8,94,0.00,,,0.00,WUHU21623XXSP,2013-11-17 23:27:00,
2013-11-17 18:32:00,51.6,50.0,29.77,SSW,202,0.0,4.9,94,0.00,,,0.00,WUHU21623XXSP,2013-11-17 23:32:00,
2013-11-17 18:39:00,51.6,50.0,29.76,North,0,4.5,4.5,94,0.00,,,0.00,WUHU21623XXSP,2013-11-17 23:39:00,
2013-11-17 18:44:00,51.8,50.2,29.75,ESE,113,4.7,6.7,94,0.00,,,0.00,WUHU21623XXSP,2013-11-17 23:44:00,
2013-11-17 18:49:00,51.8,50.2,29.76,SE,135,0.0,6.7,94,0.00,,,0.00,WUHU21623XXSP,2013-11-17 23:49:00,
2013-11-17 18:54:00,51.8,50.4,29.75,North,0,0.0,4.7,95,0.00,,,0.00,WUHU21623XXSP,2013-11-17 23:54:00,
2013-11-17 18:59:00,51.8,50.4,29.74,ENE,67,0.0,4.7,95,0.00,,,0.00,WUHU21623XXSP,2013-11-17 23:59:00,
2013-11-17 19:04:00,51.8,50.4,29.74,SSE,165,1.3,1.8,95,0.00,,,0.00,WUHU21623XXSP,2013-11-18 00:04:00,
2013-11-17 19:09:00,51.8,50.4,29.73,NW,315,0.0,2.7,95,0.00,,,0.00,WUHU21623XXSP,2013-11-18 00:09:00,
2013-11-17 19:14:00,51.8,50.4,29.73,SW,225,0.0,5.4,95,0.00,,,0.00,WUHU21623XXSP,2013-11-18 00:14:00,
2013-11-17 19:19:00,51.8,50.4,29.73,WSW,246,4.5,7.4,95,0.00,,,0.00,WUHU21623XXSP,2013-11-18 00:19:00,
2013-11-17 19:24:00,52.0,50.6,29.73,South,180,2.9,7.4,95,0.00,,,0.00,WUHU21623XXSP,2013-11-18 00:24:00,
2013-11-17 19:29:00,52.0,50.6,29.73,SE,135,0.0,2.9,95,0.00,,,0.00,WUHU21623XXSP,2013-11-18 00:29:00,
2013-11-17 19:35:00,51.8,50.4,29.73,SSE,157,0.0,6.9,95,0.00,,,0.00,WUHU21623XXSP,2013-11-18 00:35:00,
2013-11-17 19:42:00,52.0,50.6,29.72,SSE,157,1.8,1.8,95,0.00,,,0.00,WUHU21623XXSP,2013-11-18 00:42:00,
2013-11-17 19:48:00,52.0,50.6,29.71,South,180,0.0,6.5,95,0.00,,,0.00,WUHU21623XXSP,2013-11-18 00:48:00,
2013-11-17 19:53:00,52.0,50.6,29.70,South,180,2.2,6.0,95,0.00,,,0.00,WUHU21623XXSP,2013-11-18 00:53:00,
2013-11-17 19:59:00,52.0,50.6,29.70,SSW,202,3.4,3.4,95,0.00,,,0.00,WUHU21623XXSP,2013-11-18 00:59:00,
2013-11-17 20:04:00,52.0,50.6,29.69,South,180,4.5,4.5,95,0.00,,,0.00,WUHU21623XXSP,2013-11-18 01:04:00,
2013-11-17 20:09:00,52.0,50.6,29.68,NNE,22,6.0,6.5,95,0.00,,,0.00,WUHU21623XXSP,2013-11-18 01:09:00,
2013-11-17 20:14:00,52.0,50.6,29.68,SSE,164,5.4,9.4,95,0.00,,,0.00,WUHU21623XXSP,2013-11-18 01:14:00,
2013-11-17 20:19:00,52.2,50.8,29.67,South,180,4.9,9.4,95,0.00,,,0.00,WUHU21623XXSP,2013-11-18 01:19:00,
2013-11-17 20:25:00,52.0,50.6,29.67,South,171,3.8,5.6,95,0.00,,,0.00,WUHU21623XXSP,2013-11-18 01:25:00,
2013-11-17 20:32:00,52.0,50.6,29.66,NE,45,3.4,7.2,95,0.00,,,0.00,WUHU21623XXSP,2013-11-18 01:32:00,
2013-11-17 20:40:00,52.2,50.8,29.66,SSW,192,2.0,7.2,95,0.00,,,0.00,WUHU21623XXSP,2013-11-18 01:40:00,
2013-11-17 20:45:00,52.2,50.8,29.65,South,180,0.0,6.0,95,0.00,,,0.00,WUHU21623XXSP,2013-11-18 01:45:00,
2013-11-17 20:50:00,52.3,50.9,29.65,SSE,157,2.0,5.1,95,0.00,,,0.00,WUHU21623XXSP,2013-11-18 01:50:00,
2013-11-17 20:55:00,52.3,50.9,29.65,SSE,165,3.6,6.0,95,0.00,,,0.00,WUHU21623XXSP,2013-11-18 01:55:00,
2013-11-17 21:01:00,52.3,50.9,29.65,South,172,3.7,6.0,95,0.00,,,0.00,WUHU21623XXSP,2013-11-18 02:01:00,
2013-11-17 21:06:00,52.5,51.1,29.65,SSE,147,4.6,5.1,95,0.00,,,0.00,WUHU21623XXSP,2013-11-18 02:06:00,
2013-11-17 21:11:00,52.5,51.1,29.65,SSE,157,3.1,7.4,95,0.00,,,0.00,WUHU21623XXSP,2013-11-18 02:11:00,
2013-11-17 21:16:00,52.7,51.3,29.65,SSE,157,6.7,7.4,95,0.00,,,0.00,WUHU21623XXSP,2013-11-18 02:16:00,
2013-11-17 21:22:00,52.9,51.5,29.64,South,175,4.1,12.8,95,0.00,,,0.00,WUHU21623XXSP,2013-11-18 02:22:00,
2013-11-17 21:27:00,52.9,51.5,29.63,SSE,157,3.3,12.8,95,0.00,,,0.00,WUHU21623XXSP,2013-11-18 02:27:00,
2013-11-17 21:33:00,52.9,51.5,29.63,SSE,157,1.1,5.8,95,0.00,,,0.00,WUHU21623XXSP,2013-11-18 02:33:00,
2013-11-17 21:39:00,52.9,51.3,29.63,NNW,337,1.3,2.5,94,0.00,,,0.00,WUHU21623XXSP,2013-11-18 02:39:00,
2013-11-17 21:44:00,52.9,51.3,29.63,SSE,157,0.0,8.1,94,0.00,,,0.00,WUHU21623XXSP,2013-11-18 02:44:00,
2013-11-17 21:49:00,52.9,51.3,29.63,South,180,3.3,11.2,94,0.00,,,0.00,WUHU21623XXSP,2013-11-18 02:49:00,
2013-11-17 21:54:00,53.1,51.5,29.64,SSW,202,3.1,11.2,94,0.00,,,0.00,WUHU21623XXSP,2013-11-18 02:54:00,
2013-11-17 21:59:00,53.2,51.6,29.63,WNW,292,0.0,7.4,94,0.00,,,0.00,WUHU21623XXSP,2013-11-18 02:59:00,
2013-11-17 22:04:00,53.2,51.6,29.64,South,180,4.5,6.3,94,0.00,,,0.00,WUHU21623XXSP,2013-11-18 03:04:00,
2013-11-17 22:09:00,53.4,51.8,29.63,NE,51,2.8,6.3,94,0.00,,,0.00,WUHU21623XXSP,2013-11-18 03:09:00,
2013-11-17 22:14:00,53.4,51.8,29.63,South,180,2.5,6.0,94,0.00,,,0.00,WUHU21623XXSP,2013-11-18 03:14:00,
2013-11-17 22:19:00,53.4,51.8,29.62,South,177,4.9,7.8,94,0.00,,,0.00,WUHU21623XXSP,2013-11-18 03:19:00,
2013-11-17 22:24:00,53.4,51.8,29.62,South,172,4.4,7.8,94,0.00,,,0.00,WUHU21623XXSP,2013-11-18 03:24:00,
2013-11-17 22:29:00,53.4,52.0,29.61,South,180,2.3,5.8,95,0.00,,,0.00,WUHU21623XXSP,2013-11-18 03:29:00,
2013-11-17 22:34:00,53.4,52.0,29.60,SSE,157,6.2,8.3,95,0.00,,,0.00,WUHU21623XXSP,2013-11-18 03:34:00,
2013-11-17 22:40:00,53.6,52.2,29.60,SSW,208,4.8,8.3,95,0.00,,,0.00,WUHU21623XXSP,2013-11-18 03:40:00,
2013-11-17 22:46:00,53.8,52.4,29.60,South,177,3.5,5.1,95,0.00,,,0.00,WUHU21623XXSP,2013-11-18 03:46:00,
2013-11-17 22:51:00,53.8,52.4,29.60,SSE,164,3.9,6.3,95,0.00,,,0.00,WUHU21623XXSP,2013-11-18 03:51:00,
2013-11-17 22:57:00,53.8,52.4,29.59,SSE,157,2.7,6.7,95,0.00,,,0.00,WUHU21623XXSP,2013-11-18 03:57:00,
2013-11-17 23:02:00,53.8,52.4,29.59,SSW,194,6.4,6.9,95,0.00,,,0.00,WUHU21623XXSP,2013-11-18 04:02:00,
2013-11-17 23:07:00,54.0,52.6,29.59,South,180,4.4,6.9,95,0.00,,,0.00,WUHU21623XXSP,2013-11-18 04:07:00,
2013-11-17 23:12:00,54.0,52.6,29.59,SSE,157,0.0,6.5,95,0.00,,,0.00,WUHU21623XXSP,2013-11-18 04:12:00,
2013-11-17 23:17:00,54.1,52.7,29.60,SW,220,3.8,6.5,95,0.00,,,0.00,WUHU21623XXSP,2013-11-18 04:17:00,
2013-11-17 23:22:00,53.2,51.6,29.67,West,270,9.2,32.4,94,0.00,,,0.00,WUHU21623XXSP,2013-11-18 04:22:00,
2013-11-17 23:27:00,50.7,48.6,29.66,WSW,247,5.2,32.4,93,0.00,,,0.00,WUHU21623XXSP,2013-11-18 04:27:00,
2013-11-17 23:32:00,48.7,46.4,29.67,West,270,8.7,25.3,92,0.00,,,0.00,WUHU21623XXSP,2013-11-18 04:32:00,
2013-11-17 23:37:00,47.5,45.0,29.67,SW,234,7.8,16.8,91,0.00,,,0.00,WUHU21623XXSP,2013-11-18 04:37:00,
2013-11-17 23:42:00,46.8,44.3,29.68,SW,228,9.4,16.8,91,0.00,,,0.00,WUHU21623XXSP,2013-11-18 04:42:00,
2013-11-17 23:47:00,46.6,44.1,29.67,SW,231,11.1,20.6,91,0.00,,,0.00,WUHU21623XXSP,2013-11-18 04:47:00,
2013-11-17 23:52:00,46.8,44.1,29.67,SW,230,8.9,20.6,90,0.00,,,0.00,WUHU21623XXSP,2013-11-18 04:52:00,
2013-11-17 23:57:00,46.9,44.0,29.66,West,270,8.1,14.3,90,0.00,,,0.00,WUHU21623XXSP,2013-11-18 04:57:00,